A- A+ FrançaisEnglishEspañol中国

最近的 LFBT Tarbes-Lourdes-PyrénéesLFBO Toulouse-BlagnacLFCL Toulouse-Lasbordes LFOP Rouen-Boos

manche à air

飞行员的航空天气,使用METAR(气象机场报告)进行的飞行准备和TAF(终端机场预报:针对以下情况的短期天气预报)航空)。 以及其他资源,例如VAC(目视进近图)和NOTAM(通知飞行员)以进行预试飞行.

Nanaimo机场 (加拿大) / OACI CYCD/ IATA YCD

Nanaimo机场的高度为28 m=92 ft. 它位于附近 Nanaimo (加拿大). 可提供5天天气预报 Extension 位于 7.8 km.

METAR Nanaimo机场的 - CYCD

CYCD 230000Z 11008KT 070V130 4SM -RA BR SCT004 OVC008 06/05 A2994 RMK SF4SC4 CIG RAG SLP141

Nanaimo机场METAR解码 (CA)

CYCD机场发行的METAR日期jeudi 23 janvier 2020至00:00 GMT. 警告:此METAR已过期,已于794分钟前发布.

可见度为6.4 km=4 sm.

温度为6°C=43 °F 露点为5°C=41 °F 。 这相当于93%的相对湿度。.

QNH是1014 hPa=29.94 inHg

的风8 kt=15 km/h, 风向为110°.

云:距离400 ft=120云. 多云800 ft=240云.

-RA BR

RMK SF4SC4 CIG 雨G SLP141

TAF Nanaimo机场的 - CYCD

CYCD 222338Z 2300/2305 12010G20KT 6SM -RA SCT008 BKN015 TEMPO 2300/2305 3SM -RA BR SCT004 OVC008 PROB30 2300/2305 2SM -RA BR BKN004 BECMG 2302/2304 12008KT RMK NXT FCST WILL BE ISSUED AT 231545Z

CYCD 222338Z 2300/2305 12010G20KT 6SM 光RA 距离008 距云015 暂时 2300/2305 3SM 光RA 薄雾 距离004 多云008 拥有30%的可能性 2300/2305 2SM 光RA 薄雾 距云004 变得 2302/2304 12008KT 备注 NXT 漏斗云ST WILL BE ISSUED AT 231545Z

附近的机场Nanaimo

Extension的一般天气5天预报 (7.8 km)CYVR Vancouver机场 (52 km)CYYJ Victoria Intl机场 (56 km)CZBB Boundary Bay机场 (63 km)KORS Orcas Is机场 (80 km)CYGB Texada Gillies Bay机场 (85 km)KFHR Friday Harbour机场 (86 km)

的鸟瞰图

Nanaimo机场的NOTAM

提供的NOTAM不能保证其时事性。 在将其用于飞行准备或在飞行期间使用之前,飞行员是唯一负责验证其有效性的人员。

NOTAM Aerodrome (从 mercredi 22 janvier 2020 时间上午 23:56 到 samedi 25 janvier 2020 时间上午 23:59)

I0413/20 NOTAMR I0327/20
Q) CZVR/QFAXX/IV/NBO/A/000/999/4903N12352W005
A) CYCD B) 2001212356 C) 2001242359 EST
E) TWY G AND APN II CLSD
CREATED: 21 Jan 2020 23:56:00
SOURCE: CYHQYNYX

NOTAM Firefighting and rescue (从 samedi 14 décembre 2019 时间上午 02:30 到 mardi 10 mars 2020 时间上午 17:30)

I1241/19 NOTAMN
Q) CZVR/QFFCG/IV/NBO/A/000/999/4903N12352W005
A) CYCD B) 1912140230 C) 2003101730
D) DAILY 0230-0330 1445-1730
E) ACFT RESCUE AND FIRE FIGHTING (ARFF) DOWNGRADED TO CAT 5
CREATED: 13 Dec 2019 23:01:00
SOURCE: CYHQYNYX

NOTAM Standard instrument departure (从 mardi 19 novembre 2019 时间上午 15:39 到 mardi 18 février 2020 时间上午 18:00)

I0858/19 NOTAMR I0060/19
Q) CZVR/QPDAU/I/NBO/A/000/999/4903N12352W005
A) CYCD B) 1911191539 C) 2002181800 EST
E) FAXTO ONE DEP: DEP ROUTE DESCRIPTION: RWY 34: NOT AUTH
CREATED: 19 Nov 2019 15:39:00
SOURCE: CYHQYNYX

NOTAM Air/ground facility (从 mercredi 22 janvier 2020 时间上午 16:02 到 jeudi 23 janvier 2020 时间上午 00:30)

L0303/20 NOTAMN
Q) CZVR/QCAAS/IV/B/AE/000/999/4903N12352W999
A) CYCD B) 2001221602 C) 2001230030
E) S1 BEACON U/S.
CREATED: 22 Jan 2020 16:02:00
SOURCE: CYHQYNYX

NOTAM Not listed (从 mardi 17 décembre 2019 时间上午 20:24 到 lundi 16 mars 2020 时间上午 19:30)

L1254/19 NOTAMR L0065/19
Q) CZVR/QXXXX/IV/NBO/A/000/999/4903N12352W005
A) CYCD B) 1912172024 C) 2003161930 EST
E) IFR TRAINING FLT NOT AUTH
CREATED: 17 Dec 2019 20:24:00
SOURCE: CYHQYNYX

数据源